Orbital elements of ANIK F2
| Launched | 17 July 2004 |
| Flight ended | – |
| Launch site | Europe's Spaceport, Kourou, French Guiana |
| Owner | Canada |
| NORAD ID | 28378 |
| Date fetched |
Epoch osculation |
Inc. [°] |
Ecc. | RA asc node [hr] |
Arg Peri. [°] |
Mean anom [°] |
Mean motion [rev/day] |
Abs. mag |
| Date fetched |
Epoch osculation |
Inc. [°] |
Ecc. | RA asc node [hr] |
Arg Peri. [°] |
Mean anom [°] |
Mean motion [rev/day] |
Abs. mag |
| 2026 May 09 17:57 | 2026 May 09 04:42:25 | 3.1855 | 0.00046 | 5.3300 | 343.3552 | 123.1995 | 1.00272 | 5.243 |
| 2026 May 08 17:57 | 2026 May 08 03:37:03 | 3.1830 | 0.00046 | 5.3309 | 342.6794 | 123.1995 | 1.00272 | 5.243 |
| 2026 May 07 17:58 | 2026 May 07 05:53:39 | 3.1808 | 0.00046 | 5.3316 | 342.0459 | 123.1995 | 1.00272 | 5.243 |
| 2026 May 06 17:57 | 2026 May 06 12:41:25 | 3.1791 | 0.00046 | 5.3322 | 341.3907 | 123.1995 | 1.00272 | 5.243 |
| 2026 May 05 17:57 | 2026 May 05 10:13:31 | 3.1763 | 0.00047 | 5.3335 | 341.2668 | 123.1995 | 1.00272 | 5.243 |
| 2026 May 04 17:57 | 2026 May 04 10:00:18 | 3.1739 | 0.00047 | 5.3343 | 340.0497 | 123.1995 | 1.00272 | 5.243 |
| 2026 May 03 17:57 | 2026 May 03 11:35:15 | 3.1718 | 0.00047 | 5.3352 | 339.2251 | 123.1995 | 1.00272 | 5.243 |
| 2026 May 02 17:57 | 2026 May 02 11:40:11 | 3.1695 | 0.00047 | 5.3360 | 338.2253 | 123.1995 | 1.00272 | 5.243 |
| 2026 May 01 17:56 | 2026 May 01 11:39:45 | 3.1670 | 0.00046 | 5.3369 | 337.4887 | 123.1995 | 1.00272 | 5.243 |
| 2026 Apr 30 17:56 | 2026 Apr 30 06:01:27 | 3.1640 | 0.00046 | 5.3379 | 336.6509 | 123.1995 | 1.00272 | 5.243 |
| 2026 Apr 29 17:57 | 2026 Apr 29 11:12:02 | 3.1621 | 0.00045 | 5.3386 | 335.9243 | 123.1995 | 1.00272 | 5.243 |
| 2026 Apr 28 17:56 | 2026 Apr 28 11:14:32 | 3.1597 | 0.00045 | 5.3394 | 334.8845 | 123.1995 | 1.00272 | 5.243 |
| 2026 Apr 27 17:58 | 2026 Apr 27 11:03:48 | 3.1571 | 0.00044 | 5.3402 | 333.7703 | 123.1995 | 1.00272 | 5.243 |
| 2026 Apr 26 17:58 | 2026 Apr 25 21:38:17 | 3.1531 | 0.00043 | 5.3413 | 332.0889 | 123.1995 | 1.00272 | 5.243 |
| 2026 Apr 25 17:58 | 2026 Apr 25 11:35:12 | 3.1520 | 0.00043 | 5.3417 | 331.7691 | 123.1995 | 1.00272 | 5.243 |
| 2026 Apr 24 17:59 | 2026 Apr 24 05:30:29 | 3.1485 | 0.00042 | 5.3426 | 330.6342 | 123.1995 | 1.00272 | 5.243 |
| 2026 Apr 23 17:57 | 2026 Apr 22 20:23:24 | 3.1446 | 0.00041 | 5.3437 | 329.6598 | 123.1995 | 1.00272 | 5.243 |
| 2026 Apr 22 17:57 | 2026 Apr 22 04:39:14 | 3.1427 | 0.00041 | 5.3443 | 329.4086 | 123.1995 | 1.00272 | 5.243 |
| 2026 Apr 21 17:57 | 2026 Apr 21 11:03:38 | 3.1406 | 0.00041 | 5.3450 | 328.9029 | 123.1995 | 1.00272 | 5.243 |
| 2026 Apr 20 17:57 | 2026 Apr 20 11:49:38 | 3.1377 | 0.00040 | 5.3458 | 328.4071 | 123.1995 | 1.00272 | 5.243 |
| 2026 Apr 19 17:58 | 2026 Apr 19 12:22:37 | 3.1348 | 0.00040 | 5.3466 | 328.0657 | 123.1995 | 1.00272 | 5.243 |
| 2026 Apr 18 17:56 | 2026 Apr 18 04:49:29 | 3.1310 | 0.00040 | 5.3477 | 327.5640 | 123.1995 | 1.00272 | 5.243 |
| 2026 Apr 16 17:57 | 2026 Apr 16 04:54:34 | 3.1246 | 0.00041 | 5.3497 | 329.5500 | 123.1995 | 1.00272 | 5.243 |
| 2026 Apr 14 17:57 | 2026 Apr 14 08:03:47 | 3.1195 | 0.00041 | 5.3515 | 328.8480 | 123.1995 | 1.00272 | 5.243 |
| 2026 Apr 13 17:57 | 2026 Apr 13 05:02:17 | 3.1165 | 0.00041 | 5.3525 | 328.4541 | 123.1995 | 1.00272 | 5.243 |
| 2026 Apr 12 17:57 | 2026 Apr 12 10:58:37 | 3.1146 | 0.00042 | 5.3532 | 328.1923 | 123.1995 | 1.00272 | 5.243 |